createdAt,value
2019-02-05T00:01:01.662Z,9.57
2019-02-05T00:03:07.461Z,10.97
2019-02-05T00:05:11.430Z,9.33
2019-02-05T00:07:15.294Z,10.13
2019-02-05T00:09:19.209Z,11.30
2019-02-05T00:11:23.145Z,11.90
2019-02-05T00:13:27.039Z,10.63
2019-02-05T00:15:30.960Z,11.60
2019-02-05T00:17:34.826Z,11.10
2019-02-05T00:19:38.753Z,12.33
2019-02-05T00:21:42.631Z,11.67
2019-02-05T00:23:46.542Z,11.97
2019-02-05T00:25:50.430Z,12.13
2019-02-05T00:27:54.301Z,13.43
2019-02-05T00:29:58.342Z,13.33
2019-02-05T00:32:02.189Z,12.07
2019-02-05T00:34:06.050Z,12.10
2019-02-05T00:36:09.934Z,10.70
2019-02-05T00:38:13.817Z,12.30
2019-02-05T00:40:17.856Z,13.43
2019-02-05T00:42:21.753Z,10.77
2019-02-05T00:44:25.616Z,10.93
2019-02-05T00:46:29.482Z,11.43
2019-02-05T00:48:33.499Z,13.30
2019-02-05T00:50:37.338Z,11.43
2019-02-05T00:52:41.187Z,10.97
2019-02-05T00:54:45.092Z,11.27
2019-02-05T00:56:48.981Z,12.77
2019-02-05T00:58:52.878Z,12.87
2019-02-05T01:00:56.742Z,13.97
2019-02-05T01:03:00.662Z,11.17
2019-02-05T01:05:06.163Z,12.13
2019-02-05T01:07:10.033Z,12.83
2019-02-05T01:09:13.918Z,13.57
2019-02-05T01:11:18.171Z,13.77
2019-02-05T01:13:22.046Z,11.97
2019-02-05T01:15:26.770Z,12.53
2019-02-05T01:17:30.695Z,14.47
2019-02-05T01:19:34.588Z,10.97
2019-02-05T01:21:39.276Z,13.13
2019-02-05T01:23:43.168Z,10.20
2019-02-05T01:25:47.061Z,12.30
2019-02-05T01:27:51.418Z,15.97
2019-02-05T01:29:55.669Z,14.93
2019-02-05T01:32:00.092Z,16.37
2019-02-05T01:34:03.926Z,14.50
2019-02-05T01:36:07.832Z,15.30
2019-02-05T01:38:11.700Z,16.90
2019-02-05T01:40:18.317Z,16.63
2019-02-05T01:42:22.258Z,17.77
2019-02-05T01:44:26.124Z,14.07
2019-02-05T01:46:30.011Z,16.50
2019-02-05T01:48:33.902Z,18.03
2019-02-05T01:50:37.781Z,12.23
2019-02-05T01:52:41.870Z,14.77
2019-02-05T01:54:45.730Z,14.30
2019-02-05T01:56:49.620Z,17.37
2019-02-05T01:58:53.493Z,17.67
2019-02-05T02:00:57.417Z,14.30
2019-02-05T02:03:02.068Z,15.40
2019-02-05T02:05:07.000Z,16.70
2019-02-05T02:07:10.904Z,15.00
2019-02-05T02:09:14.773Z,16.23
2019-02-05T02:11:18.618Z,17.37
2019-02-05T02:13:23.210Z,14.57
2019-02-05T02:15:27.089Z,14.57
2019-02-05T02:17:30.973Z,18.97
2019-02-05T02:19:35.458Z,14.50
2019-02-05T02:21:39.357Z,17.20
2019-02-05T02:23:43.522Z,18.27
2019-02-05T02:25:47.425Z,16.40
2019-02-05T02:27:51.735Z,18.13
2019-02-05T02:29:55.643Z,19.10
2019-02-05T02:31:59.566Z,17.63
2019-02-05T02:34:04.062Z,18.17
2019-02-05T02:36:07.995Z,20.80
2019-02-05T02:38:11.888Z,17.80
2019-02-05T02:40:15.793Z,17.97
2019-02-05T02:42:19.689Z,20.20
2019-02-05T02:44:23.896Z,22.67
2019-02-05T02:46:34.981Z,21.53
2019-02-05T02:48:39.316Z,21.33
2019-02-05T02:50:43.174Z,19.93
2019-02-05T02:52:47.105Z,18.70
2019-02-05T02:54:51.093Z,21.90
2019-02-05T02:57:04.579Z,22.60
2019-02-05T02:59:02.146Z,21.50
2019-02-05T03:01:06.944Z,21.00
2019-02-05T03:03:10.830Z,22.40
2019-02-05T03:05:16.935Z,23.57
2019-02-05T03:07:21.237Z,21.17
2019-02-05T03:09:25.131Z,23.27
2019-02-05T03:11:29.039Z,20.33
2019-02-05T03:13:32.954Z,23.17
2019-02-05T03:15:36.801Z,23.73
2019-02-05T03:17:40.664Z,20.47
2019-02-05T03:19:44.560Z,23.37
2019-02-05T03:21:48.438Z,24.43
2019-02-05T03:23:52.381Z,22.57
2019-02-05T03:25:56.671Z,24.90
2019-02-05T03:28:00.534Z,24.20
2019-02-05T03:30:10.123Z,23.07
2019-02-05T03:32:13.991Z,26.87
2019-02-05T03:34:17.998Z,23.60
2019-02-05T03:36:22.482Z,16.63
2019-02-05T03:38:26.575Z,22.73
2019-02-05T03:40:34.797Z,22.87
2019-02-05T03:42:38.832Z,25.53
2019-02-05T03:44:42.930Z,24.77
2019-02-05T03:46:47.465Z,26.73
2019-02-05T03:48:51.640Z,24.33
2019-02-05T03:51:16.802Z,24.03
2019-02-05T03:53:43.232Z,25.97
2019-02-05T03:56:12.403Z,24.13
2019-02-05T03:58:25.448Z,27.80
2019-02-05T04:00:41.057Z,27.63
2019-02-05T04:02:57.010Z,23.60
2019-02-05T04:05:15.844Z,20.73
2019-02-05T04:07:34.451Z,23.27
2019-02-05T04:09:50.048Z,25.50
2019-02-05T04:12:12.202Z,28.13
2019-02-05T04:14:24.860Z,23.20
2019-02-05T04:17:00.330Z,23.37
2019-02-05T04:19:28.397Z,23.87
2019-02-05T04:22:00.855Z,25.80
2019-02-05T04:24:10.702Z,20.23
2019-02-05T04:26:20.198Z,24.67
2019-02-05T04:28:41.930Z,20.00
2019-02-05T04:30:51.598Z,22.67
2019-02-05T04:33:04.618Z,23.00
2019-02-05T04:35:31.430Z,22.43
2019-02-05T04:37:58.692Z,25.83
2019-02-05T04:40:37.376Z,29.10
2019-02-05T04:42:49.816Z,21.33
2019-02-05T04:45:14.507Z,23.73
2019-02-05T04:47:30.034Z,26.47
2019-02-05T04:49:51.917Z,24.17
2019-02-05T04:52:04.639Z,27.37
2019-02-05T04:54:46.442Z,29.77
2019-02-05T04:57:20.566Z,28.53
2019-02-05T04:59:36.092Z,27.77
2019-02-05T05:01:51.944Z,26.60
2019-02-05T05:04:13.871Z,26.60
2019-02-05T05:06:25.917Z,26.87
2019-02-05T05:08:58.836Z,29.07
2019-02-05T05:11:02.724Z,28.30
2019-02-05T05:13:07.001Z,27.50
2019-02-05T05:15:11.381Z,28.33
2019-02-05T05:17:15.255Z,29.77
2019-02-05T05:19:19.229Z,26.57
2019-02-05T05:21:23.130Z,28.63
2019-02-05T05:23:27.434Z,27.70
2019-02-05T05:25:31.420Z,26.67
2019-02-05T05:27:35.407Z,27.97
2019-02-05T05:29:39.262Z,28.13
2019-02-05T05:31:43.175Z,23.83
2019-02-05T05:33:47.038Z,27.27
2019-02-05T05:35:51.067Z,27.33
2019-02-05T05:37:54.929Z,29.00
2019-02-05T05:39:58.768Z,27.87
2019-02-05T05:42:02.933Z,23.63
2019-02-05T05:44:09.463Z,27.87
2019-02-05T05:46:12.335Z,25.27
2019-02-05T05:48:16.369Z,26.37
2019-02-05T05:50:21.298Z,22.77
2019-02-05T05:52:25.872Z,25.40
2019-02-05T05:54:29.794Z,24.87
2019-02-05T05:56:33.688Z,24.37
2019-02-05T05:58:37.600Z,25.80
2019-02-05T06:00:41.555Z,27.07
2019-02-05T06:02:45.991Z,25.83
2019-02-05T06:04:49.843Z,22.30
2019-02-05T06:06:53.995Z,23.17
2019-02-05T06:08:58.116Z,27.07
2019-02-05T06:11:01.975Z,25.90
2019-02-05T06:13:06.227Z,26.90
2019-02-05T06:15:12.413Z,24.67
2019-02-05T06:17:16.221Z,24.37
2019-02-05T06:19:20.129Z,26.97
2019-02-05T06:21:24.128Z,25.40
2019-02-05T06:23:28.016Z,26.10
2019-02-05T06:25:31.902Z,25.80
2019-02-05T06:27:35.815Z,25.13
2019-02-05T06:29:39.865Z,21.67
2019-02-05T06:31:43.973Z,24.93
2019-02-05T06:33:47.821Z,26.03
2019-02-05T06:35:51.749Z,23.83
2019-02-05T06:37:55.663Z,26.20
2019-02-05T06:39:59.543Z,25.23
2019-02-05T06:42:03.776Z,25.30
2019-02-05T06:44:07.722Z,25.53
2019-02-05T06:46:11.805Z,25.03
2019-02-05T06:48:15.674Z,26.70
2019-02-05T06:50:19.543Z,25.60
2019-02-05T06:52:23.485Z,25.20
2019-02-05T06:54:27.418Z,26.13
2019-02-05T06:56:31.258Z,25.63
2019-02-05T06:58:45.744Z,27.00
2019-02-05T07:00:40.678Z,26.37
2019-02-05T07:02:44.562Z,25.33
2019-02-05T07:04:48.440Z,29.30
2019-02-05T07:06:52.429Z,25.93
2019-02-05T07:08:56.331Z,25.97
2019-02-05T07:11:00.257Z,21.53
2019-02-05T07:13:04.171Z,23.33
2019-02-05T07:15:10.280Z,23.83
2019-02-05T07:17:14.188Z,24.00
2019-02-05T07:19:18.067Z,24.93
2019-02-05T07:21:22.441Z,23.37
2019-02-05T07:23:26.324Z,23.07
2019-02-05T07:25:30.376Z,21.43
2019-02-05T07:27:34.280Z,24.83
2019-02-05T07:29:38.449Z,25.20
2019-02-05T07:31:42.902Z,28.10
2019-02-05T07:33:46.772Z,24.60
2019-02-05T07:35:50.755Z,24.07
2019-02-05T07:37:54.641Z,26.83
2019-02-05T07:39:58.532Z,27.63
2019-02-05T07:42:02.535Z,27.57
2019-02-05T07:44:06.529Z,26.63
2019-02-05T07:46:10.417Z,26.50
2019-02-05T07:48:14.346Z,28.83
2019-02-05T07:50:20.649Z,26.37
2019-02-05T07:52:24.607Z,27.50
2019-02-05T07:54:28.627Z,29.50
2019-02-05T07:56:32.536Z,31.83
2019-02-05T07:58:36.465Z,29.47
2019-02-05T08:00:40.452Z,27.33
2019-02-05T08:02:44.403Z,30.37
2019-02-05T08:04:48.297Z,26.60
2019-02-05T08:06:52.226Z,29.97
2019-02-05T08:08:56.553Z,27.00
2019-02-05T08:11:00.459Z,25.83
2019-02-05T08:13:04.805Z,28.40
2019-02-05T08:15:11.763Z,27.90
2019-02-05T08:17:15.662Z,24.53
2019-02-05T08:19:19.569Z,26.43
2019-02-05T08:21:23.646Z,25.63
2019-02-05T08:23:27.606Z,28.37
2019-02-05T08:25:31.514Z,27.70
2019-02-05T08:27:37.245Z,26.60
2019-02-05T08:29:41.277Z,23.40
2019-02-05T08:31:45.158Z,28.23
2019-02-05T08:33:49.072Z,24.83
2019-02-05T08:35:53.030Z,24.70
2019-02-05T08:37:56.914Z,25.17
2019-02-05T08:40:00.804Z,24.77
2019-02-05T08:42:04.730Z,25.13
2019-02-05T08:44:08.639Z,24.67
2019-02-05T08:46:12.708Z,23.30
2019-02-05T08:48:16.586Z,23.93
2019-02-05T08:50:27.422Z,23.80
2019-02-05T08:52:31.680Z,25.77
2019-02-05T08:54:35.557Z,26.67
2019-02-05T08:56:39.471Z,26.50
2019-02-05T08:58:43.396Z,26.87
2019-02-05T09:00:47.883Z,25.13
2019-02-05T09:02:52.013Z,25.83
2019-02-05T09:04:55.893Z,26.13
2019-02-05T09:07:00.087Z,25.93
2019-02-05T09:09:05.517Z,24.60
2019-02-05T09:11:09.419Z,23.80
2019-02-05T09:13:13.305Z,25.83
2019-02-05T09:15:28.879Z,24.53
2019-02-05T09:17:24.405Z,26.70
2019-02-05T09:19:28.514Z,29.30
2019-02-05T09:21:32.401Z,25.17
2019-02-05T09:23:36.321Z,26.90
2019-02-05T09:25:40.376Z,25.20
2019-02-05T09:27:44.386Z,24.37
2019-02-05T09:29:48.298Z,24.23
2019-02-05T09:31:52.224Z,22.17
2019-02-05T09:33:56.136Z,20.97
2019-02-05T09:36:00.100Z,21.23
2019-02-05T09:38:03.987Z,22.67
2019-02-05T09:40:10.815Z,23.00
2019-02-05T09:42:14.751Z,23.13
2019-02-05T09:44:18.676Z,22.53
2019-02-05T09:46:22.774Z,20.57
2019-02-05T09:48:26.673Z,23.40
2019-02-05T09:50:36.776Z,22.47
2019-02-05T09:52:36.421Z,22.57
2019-02-05T09:54:40.320Z,21.03
2019-02-05T09:56:44.623Z,22.07
2019-02-05T09:58:48.559Z,22.43
2019-02-05T10:00:52.452Z,23.57
2019-02-05T10:02:56.414Z,22.43
2019-02-05T10:05:00.365Z,22.60
2019-02-05T10:07:04.358Z,23.20
2019-02-05T10:09:08.854Z,23.33
2019-02-05T10:11:12.766Z,19.80
2019-02-05T10:13:16.724Z,21.00
2019-02-05T10:15:23.703Z,21.30
2019-02-05T10:17:27.635Z,22.40
2019-02-05T10:19:31.547Z,22.07
2019-02-05T10:21:35.451Z,21.10
2019-02-05T10:23:39.380Z,21.07
2019-02-05T10:25:43.706Z,20.30
2019-02-05T10:27:47.614Z,22.67
2019-02-05T10:29:59.267Z,21.03
2019-02-05T10:31:57.186Z,21.27
2019-02-05T10:34:01.087Z,22.30
2019-02-05T10:36:05.612Z,22.20
2019-02-05T10:38:09.607Z,22.03
2019-02-05T10:40:14.539Z,21.60
2019-02-05T10:42:18.423Z,22.70
2019-02-05T10:44:22.364Z,22.00
2019-02-05T10:46:26.267Z,23.17
2019-02-05T10:48:30.212Z,20.83
2019-02-05T10:50:34.128Z,21.20
2019-02-05T10:52:38.037Z,21.77
2019-02-05T10:54:41.922Z,20.37
2019-02-05T10:56:45.869Z,19.97
2019-02-05T10:58:49.851Z,20.90
2019-02-05T11:00:53.808Z,20.77
2019-02-05T11:03:00.002Z,19.80
2019-02-05T11:05:06.369Z,18.83
2019-02-05T11:07:10.295Z,22.03
2019-02-05T11:09:14.196Z,21.60
2019-02-05T11:11:18.071Z,21.63
2019-02-05T11:13:22.033Z,20.57
2019-02-05T11:15:28.898Z,19.50
2019-02-05T11:17:32.836Z,19.00
2019-02-05T11:19:36.742Z,19.80
2019-02-05T11:21:40.719Z,20.73
2019-02-05T11:23:44.675Z,18.63
2019-02-05T11:25:48.958Z,19.77
2019-02-05T11:27:53.094Z,19.40
2019-02-05T11:29:57.002Z,20.43
2019-02-05T11:32:00.877Z,21.20
2019-02-05T11:34:05.732Z,19.50
2019-02-05T11:36:09.634Z,20.03
2019-02-05T11:38:13.546Z,17.67
2019-02-05T11:40:20.325Z,19.20
2019-02-05T11:42:24.197Z,15.27
2019-02-05T11:44:28.149Z,18.73
2019-02-05T11:46:32.085Z,19.53
2019-02-05T11:48:36.023Z,19.37
2019-02-05T11:50:39.957Z,18.93
2019-02-05T11:52:43.969Z,19.87
2019-02-05T11:54:48.302Z,17.50
2019-02-05T11:56:52.193Z,19.80
2019-02-05T11:58:56.133Z,19.43
2019-02-05T12:01:01.760Z,19.17
2019-02-05T12:03:06.158Z,19.43
2019-02-05T12:05:10.495Z,20.47
2019-02-05T12:07:14.554Z,18.83
2019-02-05T12:09:20.346Z,20.27
2019-02-05T12:11:24.244Z,19.83
2019-02-05T12:13:28.470Z,21.67
2019-02-05T12:15:32.361Z,19.60
2019-02-05T12:17:36.378Z,22.23
2019-02-05T12:19:40.345Z,21.67
2019-02-05T12:21:44.422Z,20.20
2019-02-05T12:23:48.955Z,18.30
2019-02-05T12:25:52.879Z,20.17
2019-02-05T12:27:56.819Z,21.10
2019-02-05T12:30:00.816Z,19.20
2019-02-05T12:32:04.979Z,20.30
2019-02-05T12:34:09.313Z,19.30
2019-02-05T12:36:13.275Z,19.53
2019-02-05T12:38:17.223Z,20.53
2019-02-05T12:40:21.140Z,19.53
2019-02-05T12:42:25.102Z,19.97
2019-02-05T12:44:29.053Z,22.00
2019-02-05T12:46:32.994Z,21.37
2019-02-05T12:48:36.929Z,21.80
2019-02-05T12:50:43.078Z,20.47
2019-02-05T12:52:47.022Z,19.20
2019-02-05T12:54:50.988Z,19.67
2019-02-05T12:56:55.050Z,21.17
2019-02-05T12:58:59.001Z,18.93
2019-02-05T13:01:03.234Z,22.03
2019-02-05T13:03:08.270Z,21.63
2019-02-05T13:05:12.206Z,21.97
2019-02-05T13:07:16.170Z,21.80
2019-02-05T13:09:20.143Z,21.17
2019-02-05T13:11:24.221Z,19.67
2019-02-05T13:13:28.162Z,20.27
2019-02-05T13:15:32.106Z,22.03
2019-02-05T13:17:36.074Z,23.10
2019-02-05T13:19:40.094Z,22.53
2019-02-05T13:21:44.108Z,20.80
2019-02-05T13:23:48.017Z,24.87
2019-02-05T13:25:51.952Z,22.30
2019-02-05T13:27:55.983Z,23.13
2019-02-05T13:30:04.151Z,21.90
2019-02-05T13:32:08.348Z,18.80
2019-02-05T13:34:12.407Z,20.40
2019-02-05T13:36:16.827Z,22.63
2019-02-05T13:38:20.783Z,20.70
2019-02-05T13:40:28.585Z,21.97
2019-02-05T13:42:32.587Z,19.97
2019-02-05T13:44:36.699Z,20.87
2019-02-05T13:46:40.941Z,21.10
2019-02-05T13:48:44.983Z,18.90
2019-02-05T13:50:48.957Z,18.63
2019-02-05T13:52:53.081Z,19.70
2019-02-05T13:54:57.019Z,19.17
2019-02-05T13:57:01.247Z,19.33
2019-02-05T13:59:05.242Z,18.90
2019-02-05T14:01:19.690Z,19.60
2019-02-05T14:03:14.849Z,18.80
2019-02-05T14:05:18.812Z,20.73
2019-02-05T14:07:23.041Z,20.53
2019-02-05T14:09:27.126Z,20.10
2019-02-05T14:11:31.062Z,21.07
2019-02-05T14:13:35.600Z,21.03
2019-02-05T14:15:45.587Z,19.93
2019-02-05T14:17:49.533Z,21.67
2019-02-05T14:19:53.618Z,23.87
2019-02-05T14:21:57.542Z,22.47
2019-02-05T14:24:01.485Z,22.00
2019-02-05T14:26:05.571Z,20.33
2019-02-05T14:28:09.929Z,19.53
2019-02-05T14:30:35.189Z,22.33
2019-02-05T14:32:39.407Z,22.17
2019-02-05T14:34:43.332Z,21.97
2019-02-05T14:36:47.269Z,24.77
2019-02-05T14:38:51.233Z,23.43
2019-02-05T14:40:57.323Z,19.27
2019-02-05T14:43:01.598Z,21.10
2019-02-05T14:45:09.419Z,22.42
2019-02-05T14:47:13.438Z,21.20
2019-02-05T14:49:24.470Z,22.13
2019-02-05T14:51:29.870Z,22.80
2019-02-05T14:53:36.425Z,22.77
2019-02-05T14:55:41.355Z,21.97
2019-02-05T14:57:46.281Z,21.23
2019-02-05T14:59:50.214Z,21.67
2019-02-05T15:01:55.190Z,21.43
2019-02-05T15:03:59.752Z,22.03
2019-02-05T15:06:07.493Z,22.60
2019-02-05T15:08:13.486Z,20.87
2019-02-05T15:10:20.063Z,21.33
2019-02-05T15:12:24.910Z,21.20
2019-02-05T15:14:29.161Z,20.90
2019-02-05T15:16:33.914Z,22.10
2019-02-05T15:18:38.581Z,21.87
2019-02-05T15:20:45.818Z,20.60
2019-02-05T15:22:51.024Z,18.47
2019-02-05T15:24:55.678Z,19.27
2019-02-05T15:27:00.115Z,19.80
2019-02-05T15:29:04.108Z,20.50
2019-02-05T15:31:09.519Z,20.10
2019-02-05T15:33:32.837Z,15.53
2019-02-05T15:35:39.935Z,19.23
2019-02-05T15:37:44.786Z,19.57
2019-02-05T15:39:49.626Z,19.77
2019-02-05T15:41:53.630Z,20.73
2019-02-05T15:44:00.768Z,20.10
2019-02-05T15:46:06.154Z,18.67
2019-02-05T15:48:11.599Z,18.50
2019-02-05T15:50:16.884Z,19.87
2019-02-05T15:52:21.748Z,19.37
2019-02-05T15:54:26.233Z,20.70
2019-02-05T15:56:30.287Z,19.60
2019-02-05T15:58:34.744Z,20.17
2019-02-05T16:00:39.594Z,19.77
2019-02-05T16:02:44.023Z,20.07
2019-02-05T16:04:48.648Z,20.67
2019-02-05T16:06:52.812Z,21.43
2019-02-05T16:08:57.131Z,20.63
2019-02-05T16:11:01.745Z,21.30
2019-02-05T16:13:05.881Z,21.03
2019-02-05T16:15:12.028Z,21.67
2019-02-05T16:17:15.996Z,20.87
2019-02-05T16:19:20.002Z,21.10
2019-02-05T16:21:23.970Z,20.17
2019-02-05T16:23:27.954Z,21.13
2019-02-05T16:25:32.021Z,17.50
2019-02-05T16:27:35.942Z,20.30
2019-02-05T16:29:39.877Z,19.30
2019-02-05T16:31:43.841Z,20.47
2019-02-05T16:33:47.859Z,20.50
2019-02-05T16:35:51.822Z,21.17
2019-02-05T16:37:56.290Z,20.50
2019-02-05T16:40:00.222Z,16.57
2019-02-05T16:42:04.691Z,20.90
2019-02-05T16:44:08.676Z,18.97
2019-02-05T16:46:12.594Z,20.40
2019-02-05T16:48:16.566Z,19.40
2019-02-05T16:50:23.617Z,17.83
2019-02-05T16:52:27.587Z,15.97
2019-02-05T16:54:31.569Z,21.07
2019-02-05T16:56:35.527Z,18.90
2019-02-05T16:58:39.480Z,17.67
2019-02-05T17:00:43.699Z,18.07
2019-02-05T17:02:47.682Z,17.10
2019-02-05T17:04:51.645Z,16.60
2019-02-05T17:06:55.658Z,19.87
2019-02-05T17:08:59.586Z,18.97
2019-02-05T17:11:03.533Z,18.53
2019-02-05T17:13:07.739Z,20.00
2019-02-05T17:15:13.993Z,21.53
2019-02-05T17:17:20.699Z,18.07
2019-02-05T17:19:23.700Z,18.77
2019-02-05T17:21:27.633Z,17.07
2019-02-05T17:23:31.555Z,20.30
2019-02-05T17:25:36.149Z,17.27
2019-02-05T17:27:40.462Z,20.53
2019-02-05T17:29:44.439Z,17.07
2019-02-05T17:31:48.397Z,18.30
2019-02-05T17:33:52.401Z,21.37
2019-02-05T17:35:56.346Z,16.50
2019-02-05T17:38:00.272Z,17.77
2019-02-05T17:40:05.643Z,17.53
2019-02-05T17:42:09.547Z,17.37
2019-02-05T17:44:13.475Z,15.53
2019-02-05T17:46:17.442Z,20.13
2019-02-05T17:48:21.394Z,15.47
2019-02-05T17:50:25.671Z,18.43
2019-02-05T17:52:29.633Z,16.03
2019-02-05T17:54:33.570Z,16.20
2019-02-05T17:56:37.557Z,19.63
2019-02-05T17:58:41.477Z,17.67
2019-02-05T18:00:50.006Z,18.93
2019-02-05T18:02:54.371Z,16.53
2019-02-05T18:04:58.223Z,16.97
2019-02-05T18:07:02.309Z,19.80
2019-02-05T18:09:07.788Z,15.63
2019-02-05T18:11:11.720Z,18.77
2019-02-05T18:13:16.176Z,20.53
2019-02-05T18:15:29.047Z,16.87
2019-02-05T18:17:32.957Z,19.77
2019-02-05T18:19:36.914Z,23.37
2019-02-05T18:21:40.903Z,17.10
2019-02-05T18:23:44.793Z,18.73
2019-02-05T18:25:48.673Z,16.33
2019-02-05T18:27:52.646Z,16.87
2019-02-05T18:29:56.622Z,17.57
2019-02-05T18:32:00.492Z,17.43
2019-02-05T18:34:04.437Z,16.93
2019-02-05T18:36:08.319Z,17.50
2019-02-05T18:38:15.015Z,20.47
2019-02-05T18:40:23.865Z,19.33
2019-02-05T18:42:27.778Z,21.83
2019-02-05T18:44:31.666Z,18.10
2019-02-05T18:46:35.898Z,19.87
2019-02-05T18:48:39.801Z,20.53
2019-02-05T18:50:44.248Z,21.13
2019-02-05T18:52:48.191Z,21.43
2019-02-05T18:54:52.061Z,16.23
2019-02-05T18:56:56.237Z,18.00
2019-02-05T18:59:00.178Z,18.70
2019-02-05T19:01:05.377Z,19.20
2019-02-05T19:03:15.614Z,20.10
2019-02-05T19:05:15.423Z,18.90
2019-02-05T19:07:19.698Z,16.93
2019-02-05T19:09:23.621Z,16.80
2019-02-05T19:11:27.487Z,21.37
2019-02-05T19:13:31.370Z,17.73
2019-02-05T19:15:38.146Z,16.60
2019-02-05T19:17:42.216Z,19.27
2019-02-05T19:19:46.125Z,18.57
2019-02-05T19:21:50.080Z,19.43
2019-02-05T19:23:55.496Z,16.17
2019-02-05T19:26:04.150Z,18.87
2019-02-05T19:28:08.483Z,19.57
2019-02-05T19:30:19.058Z,18.13
2019-02-05T19:32:23.729Z,21.63
2019-02-05T19:34:27.583Z,17.70
2019-02-05T19:36:31.447Z,18.17
2019-02-05T19:38:35.333Z,17.23
2019-02-05T19:40:39.284Z,19.63
2019-02-05T19:42:43.400Z,16.33
2019-02-05T19:44:48.818Z,18.47
2019-02-05T19:46:54.258Z,16.37
2019-02-05T19:49:00.194Z,19.17
2019-02-05T19:51:04.739Z,16.73
2019-02-05T19:53:08.578Z,18.63
2019-02-05T19:55:12.592Z,16.77
2019-02-05T19:57:16.878Z,17.97
2019-02-05T19:59:20.833Z,17.17
2019-02-05T20:01:24.739Z,17.47
2019-02-05T20:03:38.414Z,17.37
2019-02-05T20:05:34.152Z,18.13
2019-02-05T20:07:38.040Z,17.13
2019-02-05T20:09:42.461Z,18.00
2019-02-05T20:11:46.430Z,17.77
2019-02-05T20:13:50.290Z,18.43
2019-02-05T20:15:54.196Z,17.87
2019-02-05T20:17:58.082Z,17.17
2019-02-05T20:20:01.930Z,18.93
2019-02-05T20:22:06.098Z,20.93
2019-02-05T20:24:09.977Z,18.70
2019-02-05T20:26:13.826Z,22.23
2019-02-05T20:28:17.836Z,21.03
2019-02-05T20:30:23.105Z,17.77
2019-02-05T20:32:30.841Z,19.67
2019-02-05T20:34:35.758Z,20.67
2019-02-05T20:36:39.680Z,19.93
2019-02-05T20:38:43.598Z,20.43
2019-02-05T20:40:47.462Z,18.07
2019-02-05T20:42:51.413Z,21.63
2019-02-05T20:44:55.393Z,22.60
2019-02-05T20:46:59.254Z,18.17
2019-02-05T20:49:04.043Z,22.50
2019-02-05T20:51:07.950Z,22.83
2019-02-05T20:53:14.141Z,21.63
2019-02-05T20:55:22.501Z,20.67
2019-02-05T20:57:26.420Z,22.73
2019-02-05T20:59:31.461Z,18.10
2019-02-05T21:01:35.346Z,22.47
2019-02-05T21:03:39.213Z,21.60
2019-02-05T21:05:43.113Z,18.40
2019-02-05T21:07:47.120Z,22.10
2019-02-05T21:09:51.403Z,20.37
2019-02-05T21:11:55.262Z,19.63
2019-02-05T21:13:59.220Z,22.13
2019-02-05T21:16:03.096Z,22.43
2019-02-05T21:18:08.623Z,22.57
2019-02-05T21:20:28.932Z,20.30
2019-02-05T21:22:23.706Z,22.63
2019-02-05T21:24:27.597Z,17.77
2019-02-05T21:26:31.463Z,22.57
2019-02-05T21:28:36.848Z,21.73
2019-02-05T21:30:41.510Z,20.23
2019-02-05T21:32:47.978Z,19.43
2019-02-05T21:34:52.275Z,20.20
2019-02-05T21:36:56.151Z,19.90
2019-02-05T21:39:00.006Z,17.03
2019-02-05T21:41:05.017Z,18.60
2019-02-05T21:43:08.878Z,21.43
2019-02-05T21:45:15.563Z,16.53
2019-02-05T21:47:19.485Z,17.57
2019-02-05T21:49:27.775Z,17.50
2019-02-05T21:51:40.439Z,16.27
2019-02-05T21:53:42.803Z,17.53
2019-02-05T21:55:48.101Z,16.70
2019-02-05T21:57:57.362Z,17.07
2019-02-05T22:00:01.224Z,17.87
2019-02-05T22:02:06.281Z,18.67
2019-02-05T22:04:10.604Z,17.87
2019-02-05T22:06:14.531Z,18.03
2019-02-05T22:08:18.550Z,17.23
2019-02-05T22:10:22.403Z,16.90
2019-02-05T22:12:26.310Z,19.93
2019-02-05T22:14:30.213Z,17.30
2019-02-05T22:16:36.514Z,18.33
2019-02-05T22:18:40.817Z,18.47
2019-02-05T22:20:45.331Z,16.20
2019-02-05T22:22:50.934Z,16.70
2019-02-05T22:24:57.568Z,16.97
2019-02-05T22:27:03.619Z,16.03
2019-02-05T22:29:07.519Z,18.37
2019-02-05T22:31:11.406Z,19.60
2019-02-05T22:33:18.265Z,16.83
2019-02-05T22:35:24.310Z,18.50
2019-02-05T22:37:28.558Z,16.93
2019-02-05T22:39:32.488Z,18.33
2019-02-05T22:41:36.477Z,18.03
2019-02-05T22:43:41.421Z,18.27
2019-02-05T22:45:45.425Z,17.23
2019-02-05T22:47:49.946Z,16.47
2019-02-05T22:49:54.361Z,16.23
2019-02-05T22:51:58.202Z,17.07
2019-02-05T22:54:02.098Z,17.80
2019-02-05T22:56:05.964Z,20.30
2019-02-05T22:58:10.114Z,19.57
2019-02-05T23:00:43.040Z,16.50
2019-02-05T23:02:47.435Z,19.00
2019-02-05T23:04:54.262Z,16.17
2019-02-05T23:07:01.326Z,18.10
2019-02-05T23:09:23.426Z,20.10
2019-02-05T23:11:32.995Z,20.37
2019-02-05T23:13:36.885Z,18.20
2019-02-05T23:15:40.789Z,19.33
2019-02-05T23:17:45.338Z,17.87
2019-02-05T23:19:49.281Z,18.30
2019-02-05T23:21:53.225Z,21.03
2019-02-05T23:24:00.916Z,17.80
2019-02-05T23:26:05.526Z,19.27
2019-02-05T23:28:09.937Z,19.97
2019-02-05T23:30:17.211Z,17.83
2019-02-05T23:32:21.104Z,20.73
2019-02-05T23:34:25.055Z,19.87
2019-02-05T23:36:29.003Z,21.10
2019-02-05T23:38:33.190Z,17.73
2019-02-05T23:40:37.092Z,18.87
2019-02-05T23:42:40.942Z,18.90
2019-02-05T23:44:44.838Z,23.53
2019-02-05T23:46:49.055Z,19.07
2019-02-05T23:48:54.941Z,23.47
2019-02-05T23:50:58.865Z,17.60
2019-02-05T23:53:02.843Z,18.77
2019-02-05T23:55:09.795Z,17.37
2019-02-05T23:57:13.726Z,18.50
2019-02-05T23:59:17.586Z,17.40
